sensor_id;sensor_type;location;lat;lon;timestamp;temperature;humidity
44747;DHT22;30472;49.490;10.972;2023-04-25T00:01:36;8.40;99.90
44747;DHT22;30472;49.490;10.972;2023-04-25T00:04:03;8.30;99.90
44747;DHT22;30472;49.490;10.972;2023-04-25T00:06:29;8.40;99.90
44747;DHT22;30472;49.490;10.972;2023-04-25T00:08:57;8.40;99.90
44747;DHT22;30472;49.490;10.972;2023-04-25T00:11:23;8.40;99.90
44747;DHT22;30472;49.490;10.972;2023-04-25T00:13:49;8.40;99.90
44747;DHT22;30472;49.490;10.972;2023-04-25T00:16:16;8.30;99.90
44747;DHT22;30472;49.490;10.972;2023-04-25T00:18:42;8.30;99.90
44747;DHT22;30472;49.490;10.972;2023-04-25T00:21:08;8.30;99.90
44747;DHT22;30472;49.490;10.972;2023-04-25T00:23:34;8.30;99.90
44747;DHT22;30472;49.490;10.972;2023-04-25T00:26:02;8.30;99.90
44747;DHT22;30472;49.490;10.972;2023-04-25T00:28:28;8.30;99.90
44747;DHT22;30472;49.490;10.972;2023-04-25T00:30:53;8.30;99.90
44747;DHT22;30472;49.490;10.972;2023-04-25T00:33:19;8.20;99.90
44747;DHT22;30472;49.490;10.972;2023-04-25T00:35:45;8.20;99.90
44747;DHT22;30472;49.490;10.972;2023-04-25T00:38:10;8.20;99.90
44747;DHT22;30472;49.490;10.972;2023-04-25T00:40:36;8.20;99.90
44747;DHT22;30472;49.490;10.972;2023-04-25T00:43:01;8.20;99.90
44747;DHT22;30472;49.490;10.972;2023-04-25T00:45:28;8.20;99.90
44747;DHT22;30472;49.490;10.972;2023-04-25T00:47:56;8.20;99.90
44747;DHT22;30472;49.490;10.972;2023-04-25T00:50:23;8.20;99.90
44747;DHT22;30472;49.490;10.972;2023-04-25T00:52:48;8.20;99.90
44747;DHT22;30472;49.490;10.972;2023-04-25T00:55:14;8.20;99.90
44747;DHT22;30472;49.490;10.972;2023-04-25T00:57:42;8.20;99.90
44747;DHT22;30472;49.490;10.972;2023-04-25T01:00:08;8.20;99.90
44747;DHT22;30472;49.490;10.972;2023-04-25T01:02:35;8.20;99.90
44747;DHT22;30472;49.490;10.972;2023-04-25T01:05:02;8.20;99.90
44747;DHT22;30472;49.490;10.972;2023-04-25T01:07:27;8.10;99.90
44747;DHT22;30472;49.490;10.972;2023-04-25T01:09:53;8.10;99.90
44747;DHT22;30472;49.490;10.972;2023-04-25T01:12:19;8.20;99.90
44747;DHT22;30472;49.490;10.972;2023-04-25T01:14:45;8.20;99.90
44747;DHT22;30472;49.490;10.972;2023-04-25T01:17:11;8.20;99.90
44747;DHT22;30472;49.490;10.972;2023-04-25T01:19:37;8.20;99.90
44747;DHT22;30472;49.490;10.972;2023-04-25T01:22:03;8.20;99.90
44747;DHT22;30472;49.490;10.972;2023-04-25T01:24:31;8.20;99.90
44747;DHT22;30472;49.490;10.972;2023-04-25T01:26:58;8.10;99.90
44747;DHT22;30472;49.490;10.972;2023-04-25T01:29:24;8.10;99.90
44747;DHT22;30472;49.490;10.972;2023-04-25T01:31:51;8.10;99.90
44747;DHT22;30472;49.490;10.972;2023-04-25T01:34:17;8.10;99.90
44747;DHT22;30472;49.490;10.972;2023-04-25T01:36:43;8.10;99.90
44747;DHT22;30472;49.490;10.972;2023-04-25T01:39:09;8.00;99.90
44747;DHT22;30472;49.490;10.972;2023-04-25T01:41:35;8.00;99.90
44747;DHT22;30472;49.490;10.972;2023-04-25T01:44:01;8.00;99.90
44747;DHT22;30472;49.490;10.972;2023-04-25T01:46:27;8.00;99.90
44747;DHT22;30472;49.490;10.972;2023-04-25T01:48:53;7.90;99.90
44747;DHT22;30472;49.490;10.972;2023-04-25T01:51:19;8.00;99.90
44747;DHT22;30472;49.490;10.972;2023-04-25T01:53:44;7.90;99.90
44747;DHT22;30472;49.490;10.972;2023-04-25T01:56:10;7.90;99.90
44747;DHT22;30472;49.490;10.972;2023-04-25T01:58:36;7.90;99.90
44747;DHT22;30472;49.490;10.972;2023-04-25T02:01:01;7.90;99.90
44747;DHT22;30472;49.490;10.972;2023-04-25T02:03:27;7.80;99.90
44747;DHT22;30472;49.490;10.972;2023-04-25T02:05:53;7.80;99.90
44747;DHT22;30472;49.490;10.972;2023-04-25T02:08:18;7.80;99.90
44747;DHT22;30472;49.490;10.972;2023-04-25T02:10:44;7.80;99.90
44747;DHT22;30472;49.490;10.972;2023-04-25T02:13:09;7.70;99.90
44747;DHT22;30472;49.490;10.972;2023-04-25T02:15:35;7.70;99.90
44747;DHT22;30472;49.490;10.972;2023-04-25T02:18:01;7.70;99.90
44747;DHT22;30472;49.490;10.972;2023-04-25T02:20:28;7.70;99.90
44747;DHT22;30472;49.490;10.972;2023-04-25T02:22:54;7.60;99.90
44747;DHT22;30472;49.490;10.972;2023-04-25T02:25:20;7.60;99.90
44747;DHT22;30472;49.490;10.972;2023-04-25T02:27:46;7.60;99.90
44747;DHT22;30472;49.490;10.972;2023-04-25T02:30:12;7.60;99.90
44747;DHT22;30472;49.490;10.972;2023-04-25T02:32:39;7.50;99.90
44747;DHT22;30472;49.490;10.972;2023-04-25T02:35:05;7.50;99.90
44747;DHT22;30472;49.490;10.972;2023-04-25T02:37:32;7.40;99.90
44747;DHT22;30472;49.490;10.972;2023-04-25T02:39:58;7.40;99.90
44747;DHT22;30472;49.490;10.972;2023-04-25T02:42:23;7.40;99.90
44747;DHT22;30472;49.490;10.972;2023-04-25T02:44:49;7.40;99.90
44747;DHT22;30472;49.490;10.972;2023-04-25T02:47:14;7.30;99.90
44747;DHT22;30472;49.490;10.972;2023-04-25T02:49:40;7.40;99.90
44747;DHT22;30472;49.490;10.972;2023-04-25T02:52:06;7.30;99.90
44747;DHT22;30472;49.490;10.972;2023-04-25T02:54:32;7.30;99.90
44747;DHT22;30472;49.490;10.972;2023-04-25T02:56:57;7.30;99.90
44747;DHT22;30472;49.490;10.972;2023-04-25T02:59:23;7.30;99.90
44747;DHT22;30472;49.490;10.972;2023-04-25T03:01:48;7.30;99.90
44747;DHT22;30472;49.490;10.972;2023-04-25T03:04:14;7.30;99.90
44747;DHT22;30472;49.490;10.972;2023-04-25T03:06:40;7.30;99.90
44747;DHT22;30472;49.490;10.972;2023-04-25T03:09:06;7.30;99.90
44747;DHT22;30472;49.490;10.972;2023-04-25T03:11:31;7.30;99.90
44747;DHT22;30472;49.490;10.972;2023-04-25T03:13:57;7.30;99.90
44747;DHT22;30472;49.490;10.972;2023-04-25T03:16:23;7.10;99.90
44747;DHT22;30472;49.490;10.972;2023-04-25T03:18:49;7.20;99.90
44747;DHT22;30472;49.490;10.972;2023-04-25T03:21:16;7.20;99.90
44747;DHT22;30472;49.490;10.972;2023-04-25T03:23:41;7.10;99.90
44747;DHT22;30472;49.490;10.972;2023-04-25T03:26:07;7.10;99.90
44747;DHT22;30472;49.490;10.972;2023-04-25T03:28:32;7.10;99.90
44747;DHT22;30472;49.490;10.972;2023-04-25T03:30:58;7.10;99.90
44747;DHT22;30472;49.490;10.972;2023-04-25T03:33:24;7.00;99.90
44747;DHT22;30472;49.490;10.972;2023-04-25T03:35:49;7.00;99.90
44747;DHT22;30472;49.490;10.972;2023-04-25T03:38:15;7.00;99.90
44747;DHT22;30472;49.490;10.972;2023-04-25T03:40:41;7.00;99.90
44747;DHT22;30472;49.490;10.972;2023-04-25T03:43:06;7.00;99.90
44747;DHT22;30472;49.490;10.972;2023-04-25T03:45:32;7.00;99.90
44747;DHT22;30472;49.490;10.972;2023-04-25T03:47:58;7.00;99.90
44747;DHT22;30472;49.490;10.972;2023-04-25T03:50:23;7.10;99.90
44747;DHT22;30472;49.490;10.972;2023-04-25T03:52:49;7.10;99.90
44747;DHT22;30472;49.490;10.972;2023-04-25T03:55:15;7.20;99.90
44747;DHT22;30472;49.490;10.972;2023-04-25T03:57:40;7.20;99.90
44747;DHT22;30472;49.490;10.972;2023-04-25T04:00:06;7.20;99.90
44747;DHT22;30472;49.490;10.972;2023-04-25T04:02:33;7.30;99.90
44747;DHT22;30472;49.490;10.972;2023-04-25T04:05:00;7.30;99.90
44747;DHT22;30472;49.490;10.972;2023-04-25T04:07:25;7.40;99.90
44747;DHT22;30472;49.490;10.972;2023-04-25T04:09:51;7.40;99.90
44747;DHT22;30472;49.490;10.972;2023-04-25T04:12:18;7.40;99.90
44747;DHT22;30472;49.490;10.972;2023-04-25T04:14:43;7.40;99.90
44747;DHT22;30472;49.490;10.972;2023-04-25T04:17:09;7.40;99.90
44747;DHT22;30472;49.490;10.972;2023-04-25T04:19:34;7.50;99.90
44747;DHT22;30472;49.490;10.972;2023-04-25T04:22:00;7.50;99.90
44747;DHT22;30472;49.490;10.972;2023-04-25T04:24:26;7.50;99.90
44747;DHT22;30472;49.490;10.972;2023-04-25T04:26:51;7.50;99.90
44747;DHT22;30472;49.490;10.972;2023-04-25T04:29:17;7.50;99.90
44747;DHT22;30472;49.490;10.972;2023-04-25T04:31:48;7.50;99.90
44747;DHT22;30472;49.490;10.972;2023-04-25T04:34:14;7.50;99.90
44747;DHT22;30472;49.490;10.972;2023-04-25T04:36:44;7.50;99.90
44747;DHT22;30472;49.490;10.972;2023-04-25T04:39:11;7.50;99.90
44747;DHT22;30472;49.490;10.972;2023-04-25T04:41:37;7.40;99.90
44747;DHT22;30472;49.490;10.972;2023-04-25T04:44:03;7.40;99.90
44747;DHT22;30472;49.490;10.972;2023-04-25T04:46:29;7.40;99.90
44747;DHT22;30472;49.490;10.972;2023-04-25T04:48:55;7.30;99.90
44747;DHT22;30472;49.490;10.972;2023-04-25T04:51:21;7.30;99.90
44747;DHT22;30472;49.490;10.972;2023-04-25T04:53:47;7.30;99.90
44747;DHT22;30472;49.490;10.972;2023-04-25T04:56:13;7.30;99.90
44747;DHT22;30472;49.490;10.972;2023-04-25T04:58:38;7.30;99.90
44747;DHT22;30472;49.490;10.972;2023-04-25T05:01:04;7.30;99.90
44747;DHT22;30472;49.490;10.972;2023-04-25T05:03:29;7.30;99.90
44747;DHT22;30472;49.490;10.972;2023-04-25T05:05:55;7.30;99.90
44747;DHT22;30472;49.490;10.972;2023-04-25T05:08:20;7.30;99.90
44747;DHT22;30472;49.490;10.972;2023-04-25T05:10:46;7.30;99.90
44747;DHT22;30472;49.490;10.972;2023-04-25T05:13:12;7.30;99.90
44747;DHT22;30472;49.490;10.972;2023-04-25T05:15:37;7.40;99.90
44747;DHT22;30472;49.490;10.972;2023-04-25T05:18:03;7.40;99.90
44747;DHT22;30472;49.490;10.972;2023-04-25T05:20:28;7.40;99.90
44747;DHT22;30472;49.490;10.972;2023-04-25T05:22:54;7.50;99.90
44747;DHT22;30472;49.490;10.972;2023-04-25T05:25:20;7.50;99.90
44747;DHT22;30472;49.490;10.972;2023-04-25T05:27:45;7.50;99.90
44747;DHT22;30472;49.490;10.972;2023-04-25T05:30:11;7.50;99.90
44747;DHT22;30472;49.490;10.972;2023-04-25T05:32:37;7.50;99.90
44747;DHT22;30472;49.490;10.972;2023-04-25T05:35:03;7.60;99.90
44747;DHT22;30472;49.490;10.972;2023-04-25T05:37:32;7.60;99.90
44747;DHT22;30472;49.490;10.972;2023-04-25T05:39:58;7.60;99.90
44747;DHT22;30472;49.490;10.972;2023-04-25T05:42:23;7.60;99.90
44747;DHT22;30472;49.490;10.972;2023-04-25T05:44:49;7.60;99.90
44747;DHT22;30472;49.490;10.972;2023-04-25T05:47:14;7.50;99.90
44747;DHT22;30472;49.490;10.972;2023-04-25T05:49:40;7.60;99.90
44747;DHT22;30472;49.490;10.972;2023-04-25T05:52:06;7.50;99.90
44747;DHT22;30472;49.490;10.972;2023-04-25T05:54:31;7.50;99.90
44747;DHT22;30472;49.490;10.972;2023-04-25T05:56:57;7.50;99.90
44747;DHT22;30472;49.490;10.972;2023-04-25T05:59:24;7.60;99.90
44747;DHT22;30472;49.490;10.972;2023-04-25T06:01:49;7.50;99.90
44747;DHT22;30472;49.490;10.972;2023-04-25T06:04:15;7.50;99.90
44747;DHT22;30472;49.490;10.972;2023-04-25T06:06:41;7.50;99.90
44747;DHT22;30472;49.490;10.972;2023-04-25T06:09:06;7.50;99.90
44747;DHT22;30472;49.490;10.972;2023-04-25T06:11:32;7.40;99.90
44747;DHT22;30472;49.490;10.972;2023-04-25T06:13:57;7.40;99.90
44747;DHT22;30472;49.490;10.972;2023-04-25T06:16:23;7.30;99.90
44747;DHT22;30472;49.490;10.972;2023-04-25T06:18:51;7.30;99.90
44747;DHT22;30472;49.490;10.972;2023-04-25T06:21:16;7.30;99.90
44747;DHT22;30472;49.490;10.972;2023-04-25T06:23:42;7.40;99.90
44747;DHT22;30472;49.490;10.972;2023-04-25T06:26:07;7.40;99.90
44747;DHT22;30472;49.490;10.972;2023-04-25T06:28:33;7.30;99.90
44747;DHT22;30472;49.490;10.972;2023-04-25T06:30:58;7.40;99.90
44747;DHT22;30472;49.490;10.972;2023-04-25T06:33:24;7.50;99.90
44747;DHT22;30472;49.490;10.972;2023-04-25T06:35:50;7.50;99.90
44747;DHT22;30472;49.490;10.972;2023-04-25T06:38:15;7.50;99.90
44747;DHT22;30472;49.490;10.972;2023-04-25T06:40:41;7.60;99.90
44747;DHT22;30472;49.490;10.972;2023-04-25T06:43:07;7.70;99.90
44747;DHT22;30472;49.490;10.972;2023-04-25T06:45:32;7.70;99.90
44747;DHT22;30472;49.490;10.972;2023-04-25T06:47:58;7.80;99.90
44747;DHT22;30472;49.490;10.972;2023-04-25T06:50:23;7.90;99.90
44747;DHT22;30472;49.490;10.972;2023-04-25T06:52:49;7.90;99.90
44747;DHT22;30472;49.490;10.972;2023-04-25T06:55:15;8.00;99.90
44747;DHT22;30472;49.490;10.972;2023-04-25T06:57:41;8.10;99.90
44747;DHT22;30472;49.490;10.972;2023-04-25T07:00:07;8.10;99.90
44747;DHT22;30472;49.490;10.972;2023-04-25T07:02:35;8.20;99.90
44747;DHT22;30472;49.490;10.972;2023-04-25T07:05:01;8.10;99.90
44747;DHT22;30472;49.490;10.972;2023-04-25T07:07:32;8.00;99.90
44747;DHT22;30472;49.490;10.972;2023-04-25T07:09:57;7.90;99.90
44747;DHT22;30472;49.490;10.972;2023-04-25T07:12:23;7.80;99.90
44747;DHT22;30472;49.490;10.972;2023-04-25T07:14:48;7.80;99.90
44747;DHT22;30472;49.490;10.972;2023-04-25T07:17:14;7.60;99.90
44747;DHT22;30472;49.490;10.972;2023-04-25T07:19:40;7.70;99.90
44747;DHT22;30472;49.490;10.972;2023-04-25T07:22:06;7.50;99.90
44747;DHT22;30472;49.490;10.972;2023-04-25T07:24:32;7.40;99.90
44747;DHT22;30472;49.490;10.972;2023-04-25T07:26:58;7.30;99.90
44747;DHT22;30472;49.490;10.972;2023-04-25T07:29:23;7.40;99.90
44747;DHT22;30472;49.490;10.972;2023-04-25T07:31:49;7.30;99.90
44747;DHT22;30472;49.490;10.972;2023-04-25T07:34:15;7.40;99.90
44747;DHT22;30472;49.490;10.972;2023-04-25T07:36:41;7.30;99.90
44747;DHT22;30472;49.490;10.972;2023-04-25T07:39:07;7.20;99.90
44747;DHT22;30472;49.490;10.972;2023-04-25T07:41:34;7.30;99.90
44747;DHT22;30472;49.490;10.972;2023-04-25T07:44:00;7.30;99.90
44747;DHT22;30472;49.490;10.972;2023-04-25T07:46:25;7.20;99.90
44747;DHT22;30472;49.490;10.972;2023-04-25T07:48:51;7.20;99.90
44747;DHT22;30472;49.490;10.972;2023-04-25T07:51:17;7.10;99.90
44747;DHT22;30472;49.490;10.972;2023-04-25T07:53:45;6.90;99.90
44747;DHT22;30472;49.490;10.972;2023-04-25T07:56:11;6.80;99.90
44747;DHT22;30472;49.490;10.972;2023-04-25T07:58:36;6.70;99.90
44747;DHT22;30472;49.490;10.972;2023-04-25T08:01:02;6.90;99.90
44747;DHT22;30472;49.490;10.972;2023-04-25T08:03:28;7.10;99.90
44747;DHT22;30472;49.490;10.972;2023-04-25T08:05:53;7.20;99.90
44747;DHT22;30472;49.490;10.972;2023-04-25T08:08:19;7.40;99.90
44747;DHT22;30472;49.490;10.972;2023-04-25T08:10:45;7.60;99.90
44747;DHT22;30472;49.490;10.972;2023-04-25T08:13:10;7.80;99.90
44747;DHT22;30472;49.490;10.972;2023-04-25T08:15:36;8.00;99.90
44747;DHT22;30472;49.490;10.972;2023-04-25T08:18:01;8.00;99.90
44747;DHT22;30472;49.490;10.972;2023-04-25T08:20:27;8.30;99.90
44747;DHT22;30472;49.490;10.972;2023-04-25T08:22:52;8.50;99.90
44747;DHT22;30472;49.490;10.972;2023-04-25T08:25:18;8.60;99.90
44747;DHT22;30472;49.490;10.972;2023-04-25T08:27:44;8.80;99.90
44747;DHT22;30472;49.490;10.972;2023-04-25T08:30:10;8.70;99.90
44747;DHT22;30472;49.490;10.972;2023-04-25T08:32:35;8.80;99.90
44747;DHT22;30472;49.490;10.972;2023-04-25T08:35:03;9.30;99.90
44747;DHT22;30472;49.490;10.972;2023-04-25T08:37:29;9.40;99.90
44747;DHT22;30472;49.490;10.972;2023-04-25T08:39:55;9.70;99.90
44747;DHT22;30472;49.490;10.972;2023-04-25T08:42:21;9.60;99.90
44747;DHT22;30472;49.490;10.972;2023-04-25T08:44:48;9.20;99.90
44747;DHT22;30472;49.490;10.972;2023-04-25T08:47:14;9.20;99.90
44747;DHT22;30472;49.490;10.972;2023-04-25T08:49:45;9.20;99.90
44747;DHT22;30472;49.490;10.972;2023-04-25T08:52:13;8.80;99.90
44747;DHT22;30472;49.490;10.972;2023-04-25T08:54:43;8.70;99.90
44747;DHT22;30472;49.490;10.972;2023-04-25T08:57:12;8.70;99.90
44747;DHT22;30472;49.490;10.972;2023-04-25T08:59:39;8.40;99.90
44747;DHT22;30472;49.490;10.972;2023-04-25T09:02:05;8.20;99.90
44747;DHT22;30472;49.490;10.972;2023-04-25T09:04:32;8.00;99.90
44747;DHT22;30472;49.490;10.972;2023-04-25T09:06:57;8.00;99.90
44747;DHT22;30472;49.490;10.972;2023-04-25T09:09:24;8.10;99.90
44747;DHT22;30472;49.490;10.972;2023-04-25T09:11:49;8.30;99.90
44747;DHT22;30472;49.490;10.972;2023-04-25T09:14:17;8.80;99.90
44747;DHT22;30472;49.490;10.972;2023-04-25T09:17:13;9.00;99.90
44747;DHT22;30472;49.490;10.972;2023-04-25T09:19:39;10.50;99.90
44747;DHT22;30472;49.490;10.972;2023-04-25T09:22:06;10.90;99.90
44747;DHT22;30472;49.490;10.972;2023-04-25T09:26:57;11.70;99.90
44747;DHT22;30472;49.490;10.972;2023-04-25T09:29:34;11.40;99.90
44747;DHT22;30472;49.490;10.972;2023-04-25T09:32:22;11.60;99.90
44747;DHT22;30472;49.490;10.972;2023-04-25T09:34:56;11.60;99.90
44747;DHT22;30472;49.490;10.972;2023-04-25T09:37:27;11.70;99.90
44747;DHT22;30472;49.490;10.972;2023-04-25T09:39:57;11.70;99.90
44747;DHT22;30472;49.490;10.972;2023-04-25T09:42:26;12.00;99.90
44747;DHT22;30472;49.490;10.972;2023-04-25T09:44:55;12.20;99.90
44747;DHT22;30472;49.490;10.972;2023-04-25T09:47:23;13.20;99.90
44747;DHT22;30472;49.490;10.972;2023-04-25T09:49:50;12.40;99.90
44747;DHT22;30472;49.490;10.972;2023-04-25T09:52:18;12.20;99.90
44747;DHT22;30472;49.490;10.972;2023-04-25T09:54:45;12.00;99.90
44747;DHT22;30472;49.490;10.972;2023-04-25T09:57:12;11.50;99.90
44747;DHT22;30472;49.490;10.972;2023-04-25T09:59:39;11.20;99.90
44747;DHT22;30472;49.490;10.972;2023-04-25T10:02:08;11.00;99.90
44747;DHT22;30472;49.490;10.972;2023-04-25T10:04:35;12.10;99.90
44747;DHT22;30472;49.490;10.972;2023-04-25T10:07:03;12.40;99.90
44747;DHT22;30472;49.490;10.972;2023-04-25T10:09:32;12.80;99.90
44747;DHT22;30472;49.490;10.972;2023-04-25T10:12:00;12.90;99.90
44747;DHT22;30472;49.490;10.972;2023-04-25T10:14:27;13.30;99.90
44747;DHT22;30472;49.490;10.972;2023-04-25T10:16:54;13.10;99.90
44747;DHT22;30472;49.490;10.972;2023-04-25T10:19:29;12.80;99.90
44747;DHT22;30472;49.490;10.972;2023-04-25T10:22:18;12.40;99.90
44747;DHT22;30472;49.490;10.972;2023-04-25T10:24:46;12.50;99.90
44747;DHT22;30472;49.490;10.972;2023-04-25T10:27:12;12.30;99.90
44747;DHT22;30472;49.490;10.972;2023-04-25T10:29:38;12.10;99.90
44747;DHT22;30472;49.490;10.972;2023-04-25T10:32:04;12.30;99.90
44747;DHT22;30472;49.490;10.972;2023-04-25T10:34:40;11.70;99.90
44747;DHT22;30472;49.490;10.972;2023-04-25T10:37:09;12.70;99.90
44747;DHT22;30472;49.490;10.972;2023-04-25T10:39:35;13.40;99.90
44747;DHT22;30472;49.490;10.972;2023-04-25T10:42:03;13.70;99.90
44747;DHT22;30472;49.490;10.972;2023-04-25T10:44:29;13.40;99.90
44747;DHT22;30472;49.490;10.972;2023-04-25T10:46:56;13.70;99.90
44747;DHT22;30472;49.490;10.972;2023-04-25T10:49:32;12.90;99.90
44747;DHT22;30472;49.490;10.972;2023-04-25T10:52:18;13.10;99.90
44747;DHT22;30472;49.490;10.972;2023-04-25T10:54:51;13.40;99.90
44747;DHT22;30472;49.490;10.972;2023-04-25T10:57:39;14.00;99.90
44747;DHT22;30472;49.490;10.972;2023-04-25T11:00:13;14.90;99.90
44747;DHT22;30472;49.490;10.972;2023-04-25T11:02:46;14.80;99.90
44747;DHT22;30472;49.490;10.972;2023-04-25T11:05:37;15.00;99.90
44747;DHT22;30472;49.490;10.972;2023-04-25T11:08:11;14.00;99.90
44747;DHT22;30472;49.490;10.972;2023-04-25T11:10:36;13.20;99.90
44747;DHT22;30472;49.490;10.972;2023-04-25T11:13:02;12.90;99.90
44747;DHT22;30472;49.490;10.972;2023-04-25T11:15:28;12.20;99.90
44747;DHT22;30472;49.490;10.972;2023-04-25T11:17:55;12.30;99.90
44747;DHT22;30472;49.490;10.972;2023-04-25T11:20:22;12.10;99.90
44747;DHT22;30472;49.490;10.972;2023-04-25T11:22:48;12.30;99.90
44747;DHT22;30472;49.490;10.972;2023-04-25T11:25:15;12.10;99.90
44747;DHT22;30472;49.490;10.972;2023-04-25T11:27:50;12.90;99.90
44747;DHT22;30472;49.490;10.972;2023-04-25T11:30:17;13.90;99.90
44747;DHT22;30472;49.490;10.972;2023-04-25T11:32:43;13.20;99.90
44747;DHT22;30472;49.490;10.972;2023-04-25T11:35:09;12.60;99.90
44747;DHT22;30472;49.490;10.972;2023-04-25T11:37:35;12.80;99.90
44747;DHT22;30472;49.490;10.972;2023-04-25T11:40:02;13.70;99.90
44747;DHT22;30472;49.490;10.972;2023-04-25T11:42:28;14.30;99.90
44747;DHT22;30472;49.490;10.972;2023-04-25T11:44:55;14.20;99.90
44747;DHT22;30472;49.490;10.972;2023-04-25T11:47:28;14.60;99.90
44747;DHT22;30472;49.490;10.972;2023-04-25T11:49:53;14.90;99.90
44747;DHT22;30472;49.490;10.972;2023-04-25T11:52:19;15.10;99.90
44747;DHT22;30472;49.490;10.972;2023-04-25T11:54:45;15.30;99.90
44747;DHT22;30472;49.490;10.972;2023-04-25T11:57:11;14.00;99.90
44747;DHT22;30472;49.490;10.972;2023-04-25T11:59:37;14.30;99.90
44747;DHT22;30472;49.490;10.972;2023-04-25T12:02:02;14.00;99.90
44747;DHT22;30472;49.490;10.972;2023-04-25T12:04:30;13.80;99.90
44747;DHT22;30472;49.490;10.972;2023-04-25T12:06:56;13.90;99.90
44747;DHT22;30472;49.490;10.972;2023-04-25T12:09:30;13.20;99.90
44747;DHT22;30472;49.490;10.972;2023-04-25T12:11:57;13.60;99.90
44747;DHT22;30472;49.490;10.972;2023-04-25T12:14:25;13.60;99.90
44747;DHT22;30472;49.490;10.972;2023-04-25T12:16:52;13.10;99.90
44747;DHT22;30472;49.490;10.972;2023-04-25T12:19:20;13.20;99.90
44747;DHT22;30472;49.490;10.972;2023-04-25T12:21:46;13.60;99.90
44747;DHT22;30472;49.490;10.972;2023-04-25T12:24:23;13.40;99.90
44747;DHT22;30472;49.490;10.972;2023-04-25T12:27:01;13.60;99.90
44747;DHT22;30472;49.490;10.972;2023-04-25T12:29:29;13.50;99.90
44747;DHT22;30472;49.490;10.972;2023-04-25T12:31:55;13.30;99.90
44747;DHT22;30472;49.490;10.972;2023-04-25T12:34:22;12.90;99.90
44747;DHT22;30472;49.490;10.972;2023-04-25T12:36:49;13.10;99.90
44747;DHT22;30472;49.490;10.972;2023-04-25T12:39:24;12.80;99.90
44747;DHT22;30472;49.490;10.972;2023-04-25T12:41:53;12.40;99.90
44747;DHT22;30472;49.490;10.972;2023-04-25T12:44:21;12.20;99.90
44747;DHT22;30472;49.490;10.972;2023-04-25T12:46:47;12.00;99.90
44747;DHT22;30472;49.490;10.972;2023-04-25T12:49:13;11.90;99.90
44747;DHT22;30472;49.490;10.972;2023-04-25T12:51:39;11.90;99.90
44747;DHT22;30472;49.490;10.972;2023-04-25T12:54:05;12.30;99.90
44747;DHT22;30472;49.490;10.972;2023-04-25T12:56:35;12.00;99.90
44747;DHT22;30472;49.490;10.972;2023-04-25T12:59:01;12.40;99.90
44747;DHT22;30472;49.490;10.972;2023-04-25T13:01:28;12.50;99.90
44747;DHT22;30472;49.490;10.972;2023-04-25T13:03:54;12.40;99.90
44747;DHT22;30472;49.490;10.972;2023-04-25T13:06:20;12.00;99.90
44747;DHT22;30472;49.490;10.972;2023-04-25T13:08:46;12.20;99.90
44747;DHT22;30472;49.490;10.972;2023-04-25T13:11:12;12.50;99.90
44747;DHT22;30472;49.490;10.972;2023-04-25T13:13:38;12.50;99.90
44747;DHT22;30472;49.490;10.972;2023-04-25T13:16:06;12.30;99.90
44747;DHT22;30472;49.490;10.972;2023-04-25T13:18:33;12.40;99.90
44747;DHT22;30472;49.490;10.972;2023-04-25T13:20:59;12.40;99.90
44747;DHT22;30472;49.490;10.972;2023-04-25T13:23:26;12.70;99.90
44747;DHT22;30472;49.490;10.972;2023-04-25T13:25:52;12.80;99.90
44747;DHT22;30472;49.490;10.972;2023-04-25T13:28:18;12.60;99.90
44747;DHT22;30472;49.490;10.972;2023-04-25T13:30:44;12.50;99.90
44747;DHT22;30472;49.490;10.972;2023-04-25T13:33:10;12.30;99.90
44747;DHT22;30472;49.490;10.972;2023-04-25T13:35:36;11.80;99.90
44747;DHT22;30472;49.490;10.972;2023-04-25T13:38:03;11.90;99.90
44747;DHT22;30472;49.490;10.972;2023-04-25T13:40:28;11.80;99.90
44747;DHT22;30472;49.490;10.972;2023-04-25T13:42:55;11.60;99.90
44747;DHT22;30472;49.490;10.972;2023-04-25T13:45:20;11.30;99.90
44747;DHT22;30472;49.490;10.972;2023-04-25T13:47:46;11.20;99.90
44747;DHT22;30472;49.490;10.972;2023-04-25T13:50:12;11.10;99.90
44747;DHT22;30472;49.490;10.972;2023-04-25T13:52:39;10.90;99.90
44747;DHT22;30472;49.490;10.972;2023-04-25T13:55:05;11.20;99.90
44747;DHT22;30472;49.490;10.972;2023-04-25T13:57:33;11.30;99.90
44747;DHT22;30472;49.490;10.972;2023-04-25T13:59:59;11.60;99.90
44747;DHT22;30472;49.490;10.972;2023-04-25T14:02:25;11.60;99.90
44747;DHT22;30472;49.490;10.972;2023-04-25T14:04:51;11.80;99.90
44747;DHT22;30472;49.490;10.972;2023-04-25T14:07:16;11.90;99.90
44747;DHT22;30472;49.490;10.972;2023-04-25T14:09:43;11.90;99.90
44747;DHT22;30472;49.490;10.972;2023-04-25T14:12:09;11.70;99.90
44747;DHT22;30472;49.490;10.972;2023-04-25T14:14:34;11.30;99.90
44747;DHT22;30472;49.490;10.972;2023-04-25T14:17:00;11.60;99.90
44747;DHT22;30472;49.490;10.972;2023-04-25T14:19:26;11.50;99.90
44747;DHT22;30472;49.490;10.972;2023-04-25T14:21:51;11.20;99.90
44747;DHT22;30472;49.490;10.972;2023-04-25T14:24:17;11.10;99.90
44747;DHT22;30472;49.490;10.972;2023-04-25T14:26:43;10.90;99.90
44747;DHT22;30472;49.490;10.972;2023-04-25T14:29:09;10.80;99.90
44747;DHT22;30472;49.490;10.972;2023-04-25T14:31:37;10.80;99.90
44747;DHT22;30472;49.490;10.972;2023-04-25T14:34:04;10.70;99.90
44747;DHT22;30472;49.490;10.972;2023-04-25T14:36:39;10.50;99.90
44747;DHT22;30472;49.490;10.972;2023-04-25T14:39:04;10.50;99.90
44747;DHT22;30472;49.490;10.972;2023-04-25T14:41:33;10.70;99.90
44747;DHT22;30472;49.490;10.972;2023-04-25T14:43:59;10.70;99.90
44747;DHT22;30472;49.490;10.972;2023-04-25T14:46:25;10.70;99.90
44747;DHT22;30472;49.490;10.972;2023-04-25T14:48:51;10.70;99.90
44747;DHT22;30472;49.490;10.972;2023-04-25T14:51:16;10.60;99.90
44747;DHT22;30472;49.490;10.972;2023-04-25T14:53:42;10.40;99.90
44747;DHT22;30472;49.490;10.972;2023-04-25T14:56:08;10.40;99.90
44747;DHT22;30472;49.490;10.972;2023-04-25T14:58:34;10.50;99.90
44747;DHT22;30472;49.490;10.972;2023-04-25T15:01:00;10.60;99.90
44747;DHT22;30472;49.490;10.972;2023-04-25T15:03:26;10.50;99.90
44747;DHT22;30472;49.490;10.972;2023-04-25T15:05:52;10.60;99.90
44747;DHT22;30472;49.490;10.972;2023-04-25T15:08:19;10.70;99.90
44747;DHT22;30472;49.490;10.972;2023-04-25T15:10:46;10.70;99.90
44747;DHT22;30472;49.490;10.972;2023-04-25T15:13:11;10.50;99.90
44747;DHT22;30472;49.490;10.972;2023-04-25T15:15:37;10.60;99.90
44747;DHT22;30472;49.490;10.972;2023-04-25T15:18:03;10.50;99.90
44747;DHT22;30472;49.490;10.972;2023-04-25T15:20:28;10.50;99.90
44747;DHT22;30472;49.490;10.972;2023-04-25T15:22:55;10.40;99.90
44747;DHT22;30472;49.490;10.972;2023-04-25T15:25:20;10.20;99.90